sensor_id;sensor_type;location;lat;lon;timestamp;P1;durP1;ratioP1;P2;durP2;ratioP2
13291;SDS011;6714;53.056;8.690;2022-12-10T00:00:51;41.90;;;23.37;;
13291;SDS011;6714;53.056;8.690;2022-12-10T00:03:35;38.67;;;21.80;;
13291;SDS011;6714;53.056;8.690;2022-12-10T00:06:18;41.23;;;23.67;;
13291;SDS011;6714;53.056;8.690;2022-12-10T00:09:01;48.37;;;25.97;;
13291;SDS011;6714;53.056;8.690;2022-12-10T00:11:44;45.00;;;24.43;;
13291;SDS011;6714;53.056;8.690;2022-12-10T00:14:26;40.20;;;23.60;;
13291;SDS011;6714;53.056;8.690;2022-12-10T00:17:08;47.27;;;25.53;;
13291;SDS011;6714;53.056;8.690;2022-12-10T00:19:52;42.87;;;24.53;;
13291;SDS011;6714;53.056;8.690;2022-12-10T00:22:34;48.80;;;26.33;;
13291;SDS011;6714;53.056;8.690;2022-12-10T00:25:16;43.70;;;23.33;;
13291;SDS011;6714;53.056;8.690;2022-12-10T00:27:59;40.00;;;21.80;;
13291;SDS011;6714;53.056;8.690;2022-12-10T00:30:41;43.43;;;23.93;;
13291;SDS011;6714;53.056;8.690;2022-12-10T00:33:23;46.90;;;26.20;;
13291;SDS011;6714;53.056;8.690;2022-12-10T00:36:08;44.90;;;25.73;;
13291;SDS011;6714;53.056;8.690;2022-12-10T00:38:50;45.93;;;25.13;;
13291;SDS011;6714;53.056;8.690;2022-12-10T00:41:32;47.90;;;26.13;;
13291;SDS011;6714;53.056;8.690;2022-12-10T00:44:15;45.33;;;25.33;;
13291;SDS011;6714;53.056;8.690;2022-12-10T00:46:57;45.17;;;24.60;;
13291;SDS011;6714;53.056;8.690;2022-12-10T00:49:39;42.80;;;24.90;;
13291;SDS011;6714;53.056;8.690;2022-12-10T00:52:23;42.33;;;24.73;;
13291;SDS011;6714;53.056;8.690;2022-12-10T00:55:05;42.77;;;22.53;;
13291;SDS011;6714;53.056;8.690;2022-12-10T00:57:47;41.43;;;22.97;;
13291;SDS011;6714;53.056;8.690;2022-12-10T01:00:29;42.23;;;23.03;;
13291;SDS011;6714;53.056;8.690;2022-12-10T01:03:12;44.73;;;24.67;;
13291;SDS011;6714;53.056;8.690;2022-12-10T01:05:54;41.20;;;22.30;;
13291;SDS011;6714;53.056;8.690;2022-12-10T01:08:37;45.03;;;25.67;;
13291;SDS011;6714;53.056;8.690;2022-12-10T01:11:20;47.23;;;26.07;;
13291;SDS011;6714;53.056;8.690;2022-12-10T01:14:03;48.47;;;26.03;;
13291;SDS011;6714;53.056;8.690;2022-12-10T01:16:46;51.77;;;27.27;;
13291;SDS011;6714;53.056;8.690;2022-12-10T01:19:28;45.70;;;26.10;;
13291;SDS011;6714;53.056;8.690;2022-12-10T01:22:10;49.73;;;26.00;;
13291;SDS011;6714;53.056;8.690;2022-12-10T01:24:54;48.57;;;25.57;;
13291;SDS011;6714;53.056;8.690;2022-12-10T01:27:36;45.67;;;24.97;;
13291;SDS011;6714;53.056;8.690;2022-12-10T01:30:19;45.43;;;25.10;;
13291;SDS011;6714;53.056;8.690;2022-12-10T01:33:01;45.97;;;25.57;;
13291;SDS011;6714;53.056;8.690;2022-12-10T01:35:43;46.43;;;25.60;;
13291;SDS011;6714;53.056;8.690;2022-12-10T01:38:25;45.37;;;24.73;;
13291;SDS011;6714;53.056;8.690;2022-12-10T01:41:12;41.33;;;24.33;;
13291;SDS011;6714;53.056;8.690;2022-12-10T01:43:56;49.17;;;26.13;;
13291;SDS011;6714;53.056;8.690;2022-12-10T01:46:39;39.40;;;22.30;;
13291;SDS011;6714;53.056;8.690;2022-12-10T01:49:22;45.13;;;25.43;;
13291;SDS011;6714;53.056;8.690;2022-12-10T01:52:06;46.83;;;24.77;;
13291;SDS011;6714;53.056;8.690;2022-12-10T01:54:49;46.67;;;25.83;;
13291;SDS011;6714;53.056;8.690;2022-12-10T01:57:32;40.87;;;24.50;;
13291;SDS011;6714;53.056;8.690;2022-12-10T02:00:15;41.50;;;23.80;;
13291;SDS011;6714;53.056;8.690;2022-12-10T02:02:59;41.57;;;22.97;;
13291;SDS011;6714;53.056;8.690;2022-12-10T02:05:43;40.87;;;24.10;;
13291;SDS011;6714;53.056;8.690;2022-12-10T02:08:26;39.80;;;22.30;;
13291;SDS011;6714;53.056;8.690;2022-12-10T02:11:11;37.80;;;22.53;;
13291;SDS011;6714;53.056;8.690;2022-12-10T02:13:58;45.20;;;24.77;;
13291;SDS011;6714;53.056;8.690;2022-12-10T02:16:44;40.07;;;23.10;;
13291;SDS011;6714;53.056;8.690;2022-12-10T02:19:32;44.87;;;25.23;;
13291;SDS011;6714;53.056;8.690;2022-12-10T02:22:20;41.97;;;24.13;;
13291;SDS011;6714;53.056;8.690;2022-12-10T02:25:05;43.20;;;24.17;;
13291;SDS011;6714;53.056;8.690;2022-12-10T02:27:49;41.73;;;24.13;;
13291;SDS011;6714;53.056;8.690;2022-12-10T02:30:34;42.77;;;23.80;;
13291;SDS011;6714;53.056;8.690;2022-12-10T02:33:18;40.03;;;22.53;;
13291;SDS011;6714;53.056;8.690;2022-12-10T02:36:00;39.07;;;23.63;;
13291;SDS011;6714;53.056;8.690;2022-12-10T02:38:44;39.13;;;23.00;;
13291;SDS011;6714;53.056;8.690;2022-12-10T02:41:27;41.43;;;24.50;;
13291;SDS011;6714;53.056;8.690;2022-12-10T02:44:10;39.43;;;23.00;;
13291;SDS011;6714;53.056;8.690;2022-12-10T02:46:55;36.63;;;22.30;;
13291;SDS011;6714;53.056;8.690;2022-12-10T02:49:38;39.13;;;22.73;;
13291;SDS011;6714;53.056;8.690;2022-12-10T02:52:22;37.03;;;21.80;;
13291;SDS011;6714;53.056;8.690;2022-12-10T02:55:05;42.03;;;23.77;;
13291;SDS011;6714;53.056;8.690;2022-12-10T02:57:51;40.87;;;23.47;;
13291;SDS011;6714;53.056;8.690;2022-12-10T03:00:35;40.77;;;23.10;;
13291;SDS011;6714;53.056;8.690;2022-12-10T03:06:20;41.37;;;23.33;;
13291;SDS011;6714;53.056;8.690;2022-12-10T03:09:05;39.17;;;21.97;;
13291;SDS011;6714;53.056;8.690;2022-12-10T03:11:48;37.43;;;22.30;;
13291;SDS011;6714;53.056;8.690;2022-12-10T03:14:31;37.53;;;21.93;;
13291;SDS011;6714;53.056;8.690;2022-12-10T03:17:14;38.33;;;22.97;;
13291;SDS011;6714;53.056;8.690;2022-12-10T03:19:57;33.73;;;20.73;;
13291;SDS011;6714;53.056;8.690;2022-12-10T03:22:43;39.03;;;21.57;;
13291;SDS011;6714;53.056;8.690;2022-12-10T03:25:26;33.77;;;20.83;;
13291;SDS011;6714;53.056;8.690;2022-12-10T03:28:09;37.47;;;21.77;;
13291;SDS011;6714;53.056;8.690;2022-12-10T03:30:52;36.17;;;21.70;;
13291;SDS011;6714;53.056;8.690;2022-12-10T03:33:36;33.90;;;20.83;;
13291;SDS011;6714;53.056;8.690;2022-12-10T03:36:19;36.97;;;22.47;;
13291;SDS011;6714;53.056;8.690;2022-12-10T03:39:03;38.77;;;22.33;;
13291;SDS011;6714;53.056;8.690;2022-12-10T03:41:45;33.10;;;19.50;;
13291;SDS011;6714;53.056;8.690;2022-12-10T03:44:28;33.13;;;20.97;;
13291;SDS011;6714;53.056;8.690;2022-12-10T03:47:11;32.10;;;19.20;;
13291;SDS011;6714;53.056;8.690;2022-12-10T03:49:54;29.50;;;18.67;;
13291;SDS011;6714;53.056;8.690;2022-12-10T03:52:36;33.30;;;20.90;;
13291;SDS011;6714;53.056;8.690;2022-12-10T03:55:20;33.43;;;20.97;;
13291;SDS011;6714;53.056;8.690;2022-12-10T03:58:02;35.77;;;22.50;;
13291;SDS011;6714;53.056;8.690;2022-12-10T04:00:44;35.57;;;20.87;;
13291;SDS011;6714;53.056;8.690;2022-12-10T04:03:26;36.60;;;21.73;;
13291;SDS011;6714;53.056;8.690;2022-12-10T04:06:09;34.30;;;21.03;;
13291;SDS011;6714;53.056;8.690;2022-12-10T04:08:52;31.00;;;19.87;;
13291;SDS011;6714;53.056;8.690;2022-12-10T04:11:36;34.57;;;21.40;;
13291;SDS011;6714;53.056;8.690;2022-12-10T04:14:18;35.20;;;21.00;;
13291;SDS011;6714;53.056;8.690;2022-12-10T04:17:18;33.50;;;21.10;;
13291;SDS011;6714;53.056;8.690;2022-12-10T04:20:00;35.17;;;21.00;;
13291;SDS011;6714;53.056;8.690;2022-12-10T04:22:42;31.40;;;19.93;;
13291;SDS011;6714;53.056;8.690;2022-12-10T04:25:42;36.37;;;21.47;;
13291;SDS011;6714;53.056;8.690;2022-12-10T04:28:44;32.50;;;20.63;;
13291;SDS011;6714;53.056;8.690;2022-12-10T04:31:26;35.47;;;21.67;;
13291;SDS011;6714;53.056;8.690;2022-12-10T04:34:08;29.17;;;18.17;;
13291;SDS011;6714;53.056;8.690;2022-12-10T04:36:50;34.30;;;21.83;;
13291;SDS011;6714;53.056;8.690;2022-12-10T04:39:33;31.63;;;20.97;;
13291;SDS011;6714;53.056;8.690;2022-12-10T04:42:15;28.63;;;18.90;;
13291;SDS011;6714;53.056;8.690;2022-12-10T04:44:58;35.20;;;21.80;;
13291;SDS011;6714;53.056;8.690;2022-12-10T04:47:40;29.80;;;19.87;;
13291;SDS011;6714;53.056;8.690;2022-12-10T04:50:23;30.37;;;18.73;;
13291;SDS011;6714;53.056;8.690;2022-12-10T04:53:05;33.50;;;20.93;;
13291;SDS011;6714;53.056;8.690;2022-12-10T04:55:47;34.07;;;20.83;;
13291;SDS011;6714;53.056;8.690;2022-12-10T04:58:29;29.27;;;19.33;;
13291;SDS011;6714;53.056;8.690;2022-12-10T05:01:13;32.60;;;21.07;;
13291;SDS011;6714;53.056;8.690;2022-12-10T05:03:57;33.50;;;20.97;;
13291;SDS011;6714;53.056;8.690;2022-12-10T05:06:40;29.23;;;18.33;;
13291;SDS011;6714;53.056;8.690;2022-12-10T05:09:22;30.73;;;20.67;;
13291;SDS011;6714;53.056;8.690;2022-12-10T05:12:04;33.00;;;20.43;;
13291;SDS011;6714;53.056;8.690;2022-12-10T05:14:46;34.90;;;21.20;;
13291;SDS011;6714;53.056;8.690;2022-12-10T05:17:30;34.93;;;22.27;;
13291;SDS011;6714;53.056;8.690;2022-12-10T05:20:12;33.30;;;21.57;;
13291;SDS011;6714;53.056;8.690;2022-12-10T05:22:54;30.63;;;20.37;;
13291;SDS011;6714;53.056;8.690;2022-12-10T05:25:57;30.00;;;19.80;;
13291;SDS011;6714;53.056;8.690;2022-12-10T05:28:40;31.30;;;19.77;;
13291;SDS011;6714;53.056;8.690;2022-12-10T05:31:24;35.50;;;20.17;;
13291;SDS011;6714;53.056;8.690;2022-12-10T05:34:08;31.00;;;20.13;;
13291;SDS011;6714;53.056;8.690;2022-12-10T05:36:51;33.53;;;20.57;;
13291;SDS011;6714;53.056;8.690;2022-12-10T05:39:33;29.93;;;20.47;;
13291;SDS011;6714;53.056;8.690;2022-12-10T05:42:15;33.40;;;21.63;;
13291;SDS011;6714;53.056;8.690;2022-12-10T05:44:57;31.43;;;20.97;;
13291;SDS011;6714;53.056;8.690;2022-12-10T05:47:40;32.33;;;21.00;;
13291;SDS011;6714;53.056;8.690;2022-12-10T05:50:23;34.00;;;21.20;;
13291;SDS011;6714;53.056;8.690;2022-12-10T05:53:05;30.13;;;18.60;;
13291;SDS011;6714;53.056;8.690;2022-12-10T05:55:47;28.43;;;18.73;;
13291;SDS011;6714;53.056;8.690;2022-12-10T05:58:30;32.13;;;21.20;;
13291;SDS011;6714;53.056;8.690;2022-12-10T06:01:12;29.27;;;19.90;;
13291;SDS011;6714;53.056;8.690;2022-12-10T06:03:56;33.07;;;21.60;;
13291;SDS011;6714;53.056;8.690;2022-12-10T06:06:40;28.87;;;19.50;;
13291;SDS011;6714;53.056;8.690;2022-12-10T06:09:22;31.90;;;21.13;;
13291;SDS011;6714;53.056;8.690;2022-12-10T06:12:04;28.87;;;18.60;;
13291;SDS011;6714;53.056;8.690;2022-12-10T06:14:47;30.80;;;19.80;;
13291;SDS011;6714;53.056;8.690;2022-12-10T06:17:29;29.80;;;20.10;;
13291;SDS011;6714;53.056;8.690;2022-12-10T06:20:11;31.17;;;20.50;;
13291;SDS011;6714;53.056;8.690;2022-12-10T06:22:55;32.17;;;21.13;;
13291;SDS011;6714;53.056;8.690;2022-12-10T06:25:37;36.37;;;22.77;;
13291;SDS011;6714;53.056;8.690;2022-12-10T06:28:19;34.67;;;22.70;;
13291;SDS011;6714;53.056;8.690;2022-12-10T06:31:02;30.33;;;20.50;;
13291;SDS011;6714;53.056;8.690;2022-12-10T06:33:44;33.30;;;21.87;;
13291;SDS011;6714;53.056;8.690;2022-12-10T06:36:26;35.13;;;22.07;;
13291;SDS011;6714;53.056;8.690;2022-12-10T06:39:10;34.30;;;22.20;;
13291;SDS011;6714;53.056;8.690;2022-12-10T06:41:52;32.50;;;20.07;;
13291;SDS011;6714;53.056;8.690;2022-12-10T06:44:34;31.97;;;22.07;;
13291;SDS011;6714;53.056;8.690;2022-12-10T06:47:16;31.63;;;20.57;;
13291;SDS011;6714;53.056;8.690;2022-12-10T06:49:59;33.23;;;21.13;;
13291;SDS011;6714;53.056;8.690;2022-12-10T06:52:41;32.07;;;21.13;;
13291;SDS011;6714;53.056;8.690;2022-12-10T06:55:24;27.67;;;17.93;;
13291;SDS011;6714;53.056;8.690;2022-12-10T06:58:06;35.93;;;22.00;;
13291;SDS011;6714;53.056;8.690;2022-12-10T07:00:49;31.37;;;20.03;;
13291;SDS011;6714;53.056;8.690;2022-12-10T07:03:31;34.40;;;21.77;;
13291;SDS011;6714;53.056;8.690;2022-12-10T07:06:13;33.00;;;21.67;;
13291;SDS011;6714;53.056;8.690;2022-12-10T07:08:55;32.10;;;19.40;;
13291;SDS011;6714;53.056;8.690;2022-12-10T07:11:39;32.23;;;20.47;;
13291;SDS011;6714;53.056;8.690;2022-12-10T07:14:21;32.33;;;20.83;;
13291;SDS011;6714;53.056;8.690;2022-12-10T07:17:03;30.57;;;20.03;;
13291;SDS011;6714;53.056;8.690;2022-12-10T07:19:45;30.73;;;19.53;;
13291;SDS011;6714;53.056;8.690;2022-12-10T07:22:30;29.70;;;19.17;;
13291;SDS011;6714;53.056;8.690;2022-12-10T07:25:13;31.40;;;20.03;;
13291;SDS011;6714;53.056;8.690;2022-12-10T07:27:56;33.60;;;22.43;;
13291;SDS011;6714;53.056;8.690;2022-12-10T07:30:38;34.13;;;21.27;;
13291;SDS011;6714;53.056;8.690;2022-12-10T07:33:20;34.27;;;21.23;;
13291;SDS011;6714;53.056;8.690;2022-12-10T07:36:03;30.30;;;19.60;;
13291;SDS011;6714;53.056;8.690;2022-12-10T07:38:46;32.37;;;21.43;;
13291;SDS011;6714;53.056;8.690;2022-12-10T07:41:28;34.00;;;21.30;;
13291;SDS011;6714;53.056;8.690;2022-12-10T07:44:12;27.07;;;18.60;;
13291;SDS011;6714;53.056;8.690;2022-12-10T07:46:54;32.50;;;21.10;;
13291;SDS011;6714;53.056;8.690;2022-12-10T07:49:37;31.00;;;21.17;;
13291;SDS011;6714;53.056;8.690;2022-12-10T07:52:19;30.60;;;19.50;;
13291;SDS011;6714;53.056;8.690;2022-12-10T07:55:01;35.63;;;21.57;;
13291;SDS011;6714;53.056;8.690;2022-12-10T07:57:43;33.63;;;21.67;;
13291;SDS011;6714;53.056;8.690;2022-12-10T08:00:27;31.37;;;21.03;;
13291;SDS011;6714;53.056;8.690;2022-12-10T08:03:09;31.43;;;21.20;;
13291;SDS011;6714;53.056;8.690;2022-12-10T08:06:00;30.93;;;21.27;;
13291;SDS011;6714;53.056;8.690;2022-12-10T08:08:42;30.40;;;20.50;;
13291;SDS011;6714;53.056;8.690;2022-12-10T08:11:25;29.30;;;20.60;;
13291;SDS011;6714;53.056;8.690;2022-12-10T08:14:07;33.97;;;21.93;;
13291;SDS011;6714;53.056;8.690;2022-12-10T08:16:51;32.83;;;22.07;;
13291;SDS011;6714;53.056;8.690;2022-12-10T08:19:33;34.13;;;22.87;;
13291;SDS011;6714;53.056;8.690;2022-12-10T08:22:15;30.33;;;20.23;;
13291;SDS011;6714;53.056;8.690;2022-12-10T08:24:57;32.73;;;21.77;;
13291;SDS011;6714;53.056;8.690;2022-12-10T08:27:40;28.23;;;19.57;;
13291;SDS011;6714;53.056;8.690;2022-12-10T08:30:22;27.10;;;17.63;;
13291;SDS011;6714;53.056;8.690;2022-12-10T08:33:05;31.40;;;20.57;;
13291;SDS011;6714;53.056;8.690;2022-12-10T08:35:48;29.73;;;20.73;;
13291;SDS011;6714;53.056;8.690;2022-12-10T08:38:30;33.10;;;21.57;;
13291;SDS011;6714;53.056;8.690;2022-12-10T08:41:13;28.53;;;20.00;;
13291;SDS011;6714;53.056;8.690;2022-12-10T08:43:56;35.10;;;22.43;;
13291;SDS011;6714;53.056;8.690;2022-12-10T08:46:38;31.93;;;21.00;;
13291;SDS011;6714;53.056;8.690;2022-12-10T08:49:22;31.23;;;20.93;;
13291;SDS011;6714;53.056;8.690;2022-12-10T08:52:04;28.97;;;19.90;;
13291;SDS011;6714;53.056;8.690;2022-12-10T08:54:47;29.37;;;19.90;;
13291;SDS011;6714;53.056;8.690;2022-12-10T08:57:29;31.43;;;21.00;;
13291;SDS011;6714;53.056;8.690;2022-12-10T09:00:12;31.70;;;21.40;;
13291;SDS011;6714;53.056;8.690;2022-12-10T09:02:54;30.93;;;20.77;;
13291;SDS011;6714;53.056;8.690;2022-12-10T09:05:38;29.27;;;19.57;;
13291;SDS011;6714;53.056;8.690;2022-12-10T09:08:20;26.57;;;17.67;;
13291;SDS011;6714;53.056;8.690;2022-12-10T09:11:05;28.80;;;18.83;;
13291;SDS011;6714;53.056;8.690;2022-12-10T09:13:48;28.20;;;19.67;;
13291;SDS011;6714;53.056;8.690;2022-12-10T09:16:32;34.20;;;21.93;;
13291;SDS011;6714;53.056;8.690;2022-12-10T09:19:15;30.90;;;20.77;;
13291;SDS011;6714;53.056;8.690;2022-12-10T09:21:58;28.77;;;20.10;;
13291;SDS011;6714;53.056;8.690;2022-12-10T09:24:40;29.50;;;19.37;;
13291;SDS011;6714;53.056;8.690;2022-12-10T09:27:23;30.47;;;21.17;;
13291;SDS011;6714;53.056;8.690;2022-12-10T09:30:05;27.43;;;19.50;;
13291;SDS011;6714;53.056;8.690;2022-12-10T09:32:47;29.93;;;21.33;;
13291;SDS011;6714;53.056;8.690;2022-12-10T09:35:30;30.60;;;20.43;;
13291;SDS011;6714;53.056;8.690;2022-12-10T09:38:13;31.40;;;20.97;;
13291;SDS011;6714;53.056;8.690;2022-12-10T09:40:58;25.40;;;19.03;;
13291;SDS011;6714;53.056;8.690;2022-12-10T09:43:44;29.80;;;19.53;;
13291;SDS011;6714;53.056;8.690;2022-12-10T09:46:31;29.57;;;20.73;;
13291;SDS011;6714;53.056;8.690;2022-12-10T09:49:21;25.93;;;19.07;;
13291;SDS011;6714;53.056;8.690;2022-12-10T09:52:08;29.17;;;20.13;;
13291;SDS011;6714;53.056;8.690;2022-12-10T09:54:53;25.90;;;18.27;;
13291;SDS011;6714;53.056;8.690;2022-12-10T09:57:37;24.40;;;17.37;;
13291;SDS011;6714;53.056;8.690;2022-12-10T10:00:23;28.70;;;19.30;;
13291;SDS011;6714;53.056;8.690;2022-12-10T10:03:09;26.80;;;18.73;;
13291;SDS011;6714;53.056;8.690;2022-12-10T10:05:54;21.27;;;15.87;;
13291;SDS011;6714;53.056;8.690;2022-12-10T10:08:38;23.00;;;17.20;;
13291;SDS011;6714;53.056;8.690;2022-12-10T10:11:23;26.17;;;18.20;;
13291;SDS011;6714;53.056;8.690;2022-12-10T10:14:08;19.67;;;14.10;;
13291;SDS011;6714;53.056;8.690;2022-12-10T10:16:54;22.70;;;15.70;;
13291;SDS011;6714;53.056;8.690;2022-12-10T10:19:39;25.00;;;16.57;;
13291;SDS011;6714;53.056;8.690;2022-12-10T10:22:21;30.43;;;20.93;;
13291;SDS011;6714;53.056;8.690;2022-12-10T10:25:04;26.23;;;17.97;;
13291;SDS011;6714;53.056;8.690;2022-12-10T10:27:48;22.47;;;16.00;;
13291;SDS011;6714;53.056;8.690;2022-12-10T10:30:30;22.97;;;16.87;;
13291;SDS011;6714;53.056;8.690;2022-12-10T10:33:14;27.43;;;18.73;;
13291;SDS011;6714;53.056;8.690;2022-12-10T10:35:56;24.70;;;17.60;;
13291;SDS011;6714;53.056;8.690;2022-12-10T10:38:39;25.47;;;17.17;;
13291;SDS011;6714;53.056;8.690;2022-12-10T10:41:28;21.30;;;15.70;;
13291;SDS011;6714;53.056;8.690;2022-12-10T10:44:20;24.10;;;17.77;;
13291;SDS011;6714;53.056;8.690;2022-12-10T10:47:02;22.60;;;16.57;;
13291;SDS011;6714;53.056;8.690;2022-12-10T10:50:05;19.43;;;14.17;;
13291;SDS011;6714;53.056;8.690;2022-12-10T10:52:47;20.03;;;14.50;;
13291;SDS011;6714;53.056;8.690;2022-12-10T10:55:30;25.27;;;17.97;;
13291;SDS011;6714;53.056;8.690;2022-12-10T10:58:16;26.50;;;17.30;;
13291;SDS011;6714;53.056;8.690;2022-12-10T11:01:01;23.27;;;16.13;;
13291;SDS011;6714;53.056;8.690;2022-12-10T11:03:45;21.80;;;15.83;;
13291;SDS011;6714;53.056;8.690;2022-12-10T11:06:28;27.83;;;18.43;;
13291;SDS011;6714;53.056;8.690;2022-12-10T11:09:13;28.57;;;17.60;;
13291;SDS011;6714;53.056;8.690;2022-12-10T11:11:58;27.30;;;19.17;;
13291;SDS011;6714;53.056;8.690;2022-12-10T11:14:43;24.33;;;16.93;;
13291;SDS011;6714;53.056;8.690;2022-12-10T11:17:27;23.83;;;16.57;;
13291;SDS011;6714;53.056;8.690;2022-12-10T11:20:15;27.10;;;18.03;;
13291;SDS011;6714;53.056;8.690;2022-12-10T11:22:58;25.10;;;17.67;;
13291;SDS011;6714;53.056;8.690;2022-12-10T11:25:42;24.90;;;17.00;;
13291;SDS011;6714;53.056;8.690;2022-12-10T11:28:31;24.63;;;17.20;;
13291;SDS011;6714;53.056;8.690;2022-12-10T11:34:17;28.20;;;18.57;;
13291;SDS011;6714;53.056;8.690;2022-12-10T11:37:01;23.97;;;17.03;;
13291;SDS011;6714;53.056;8.690;2022-12-10T11:39:56;19.40;;;13.63;;
13291;SDS011;6714;53.056;8.690;2022-12-10T11:42:42;24.10;;;16.60;;
13291;SDS011;6714;53.056;8.690;2022-12-10T11:45:30;30.40;;;19.30;;
13291;SDS011;6714;53.056;8.690;2022-12-10T11:48:16;22.87;;;15.87;;
13291;SDS011;6714;53.056;8.690;2022-12-10T11:51:03;20.93;;;14.00;;
13291;SDS011;6714;53.056;8.690;2022-12-10T11:53:52;26.93;;;17.83;;
13291;SDS011;6714;53.056;8.690;2022-12-10T11:56:37;26.63;;;16.60;;
13291;SDS011;6714;53.056;8.690;2022-12-10T11:59:22;22.33;;;15.10;;
13291;SDS011;6714;53.056;8.690;2022-12-10T12:02:16;22.10;;;14.83;;
13291;SDS011;6714;53.056;8.690;2022-12-10T12:05:14;21.43;;;15.63;;
13291;SDS011;6714;53.056;8.690;2022-12-10T12:08:03;24.10;;;16.67;;
13291;SDS011;6714;53.056;8.690;2022-12-10T12:10:50;27.20;;;16.63;;
13291;SDS011;6714;53.056;8.690;2022-12-10T12:13:33;26.27;;;17.93;;
13291;SDS011;6714;53.056;8.690;2022-12-10T12:16:17;23.67;;;15.90;;
13291;SDS011;6714;53.056;8.690;2022-12-10T12:19:02;24.07;;;16.07;;
13291;SDS011;6714;53.056;8.690;2022-12-10T12:21:45;24.90;;;16.93;;
13291;SDS011;6714;53.056;8.690;2022-12-10T12:24:32;24.60;;;16.30;;
13291;SDS011;6714;53.056;8.690;2022-12-10T12:27:20;23.33;;;15.90;;
13291;SDS011;6714;53.056;8.690;2022-12-10T12:30:05;23.97;;;16.67;;
13291;SDS011;6714;53.056;8.690;2022-12-10T12:32:50;22.90;;;15.73;;
13291;SDS011;6714;53.056;8.690;2022-12-10T12:35:36;25.27;;;16.70;;
13291;SDS011;6714;53.056;8.690;2022-12-10T12:38:26;24.73;;;16.17;;
13291;SDS011;6714;53.056;8.690;2022-12-10T12:41:12;24.33;;;15.37;;
13291;SDS011;6714;53.056;8.690;2022-12-10T12:43:58;24.00;;;15.90;;
13291;SDS011;6714;53.056;8.690;2022-12-10T12:46:42;21.43;;;14.67;;
13291;SDS011;6714;53.056;8.690;2022-12-10T12:49:26;21.40;;;14.70;;
13291;SDS011;6714;53.056;8.690;2022-12-10T12:52:13;23.60;;;14.70;;
13291;SDS011;6714;53.056;8.690;2022-12-10T12:55:00;23.30;;;15.27;;
13291;SDS011;6714;53.056;8.690;2022-12-10T12:57:46;24.67;;;15.93;;
13291;SDS011;6714;53.056;8.690;2022-12-10T13:00:30;21.20;;;15.00;;
13291;SDS011;6714;53.056;8.690;2022-12-10T13:03:20;26.37;;;16.40;;
13291;SDS011;6714;53.056;8.690;2022-12-10T13:06:13;23.50;;;15.27;;
13291;SDS011;6714;53.056;8.690;2022-12-10T13:09:15;26.23;;;16.10;;
13291;SDS011;6714;53.056;8.690;2022-12-10T13:12:18;22.40;;;15.40;;
13291;SDS011;6714;53.056;8.690;2022-12-10T13:15:03;21.97;;;15.27;;
13291;SDS011;6714;53.056;8.690;2022-12-10T13:18:06;21.77;;;14.47;;
13291;SDS011;6714;53.056;8.690;2022-12-10T13:21:19;21.17;;;14.70;;
13291;SDS011;6714;53.056;8.690;2022-12-10T13:24:09;21.83;;;14.30;;
13291;SDS011;6714;53.056;8.690;2022-12-10T13:29:54;21.17;;;13.80;;
13291;SDS011;6714;53.056;8.690;2022-12-10T13:32:45;20.73;;;14.43;;
13291;SDS011;6714;53.056;8.690;2022-12-10T13:35:29;22.50;;;14.47;;
13291;SDS011;6714;53.056;8.690;2022-12-10T13:38:19;23.03;;;14.37;;
13291;SDS011;6714;53.056;8.690;2022-12-10T13:41:03;21.93;;;14.30;;
13291;SDS011;6714;53.056;8.690;2022-12-10T13:44:21;21.13;;;13.83;;
13291;SDS011;6714;53.056;8.690;2022-12-10T13:50:06;24.00;;;14.50;;
13291;SDS011;6714;53.056;8.690;2022-12-10T13:52:58;21.20;;;14.40;;
13291;SDS011;6714;53.056;8.690;2022-12-10T13:55:45;24.43;;;15.63;;
13291;SDS011;6714;53.056;8.690;2022-12-10T13:58:37;21.47;;;14.50;;
13291;SDS011;6714;53.056;8.690;2022-12-10T14:01:25;22.80;;;14.80;;
13291;SDS011;6714;53.056;8.690;2022-12-10T14:04:21;23.47;;;15.50;;
13291;SDS011;6714;53.056;8.690;2022-12-10T14:07:10;24.33;;;15.87;;
13291;SDS011;6714;53.056;8.690;2022-12-10T14:09:54;27.83;;;16.77;;
13291;SDS011;6714;53.056;8.690;2022-12-10T14:12:37;24.40;;;15.50;;
13291;SDS011;6714;53.056;8.690;2022-12-10T14:15:22;26.60;;;16.03;;
13291;SDS011;6714;53.056;8.690;2022-12-10T14:18:07;26.97;;;15.77;;
13291;SDS011;6714;53.056;8.690;2022-12-10T14:20:52;27.27;;;16.50;;
13291;SDS011;6714;53.056;8.690;2022-12-10T14:23:36;26.07;;;15.87;;
13291;SDS011;6714;53.056;8.690;2022-12-10T14:26:26;24.73;;;15.93;;
13291;SDS011;6714;53.056;8.690;2022-12-10T14:29:16;25.43;;;15.40;;
13291;SDS011;6714;53.056;8.690;2022-12-10T14:31:59;22.53;;;14.43;;
13291;SDS011;6714;53.056;8.690;2022-12-10T14:34:41;29.17;;;17.43;;
13291;SDS011;6714;53.056;8.690;2022-12-10T14:37:26;26.93;;;16.83;;
13291;SDS011;6714;53.056;8.690;2022-12-10T14:40:12;24.60;;;16.10;;
13291;SDS011;6714;53.056;8.690;2022-12-10T14:43:05;25.80;;;17.13;;
13291;SDS011;6714;53.056;8.690;2022-12-10T14:45:51;26.97;;;16.63;;
13291;SDS011;6714;53.056;8.690;2022-12-10T14:48:38;23.93;;;15.60;;
13291;SDS011;6714;53.056;8.690;2022-12-10T14:51:21;29.60;;;18.10;;
13291;SDS011;6714;53.056;8.690;2022-12-10T14:54:03;25.70;;;16.27;;
13291;SDS011;6714;53.056;8.690;2022-12-10T14:56:47;27.67;;;17.23;;
13291;SDS011;6714;53.056;8.690;2022-12-10T14:59:29;28.60;;;17.07;;
13291;SDS011;6714;53.056;8.690;2022-12-10T15:02:16;27.83;;;17.23;;
13291;SDS011;6714;53.056;8.690;2022-12-10T15:05:00;26.80;;;16.77;;
13291;SDS011;6714;53.056;8.690;2022-12-10T15:07:43;29.60;;;18.33;;
13291;SDS011;6714;53.056;8.690;2022-12-10T15:10:28;24.47;;;16.47;;
13291;SDS011;6714;53.056;8.690;2022-12-10T15:13:16;27.33;;;17.67;;
13291;SDS011;6714;53.056;8.690;2022-12-10T15:16:00;27.07;;;17.53;;
13291;SDS011;6714;53.056;8.690;2022-12-10T15:18:43;27.83;;;17.90;;
13291;SDS011;6714;53.056;8.690;2022-12-10T15:21:26;29.23;;;17.33;;
13291;SDS011;6714;53.056;8.690;2022-12-10T15:24:13;26.70;;;17.77;;
13291;SDS011;6714;53.056;8.690;2022-12-10T15:26:57;25.97;;;16.60;;
13291;SDS011;6714;53.056;8.690;2022-12-10T15:29:41;30.37;;;17.13;;
13291;SDS011;6714;53.056;8.690;2022-12-10T15:32:23;30.90;;;18.47;;
13291;SDS011;6714;53.056;8.690;2022-12-10T15:35:10;29.57;;;18.97;;
13291;SDS011;6714;53.056;8.690;2022-12-10T15:37:54;27.70;;;17.47;;
13291;SDS011;6714;53.056;8.690;2022-12-10T15:40:39;29.87;;;18.53;;
13291;SDS011;6714;53.056;8.690;2022-12-10T15:43:24;30.43;;;18.87;;
13291;SDS011;6714;53.056;8.690;2022-12-10T15:46:16;31.63;;;18.43;;
13291;SDS011;6714;53.056;8.690;2022-12-10T15:48:59;31.07;;;18.63;;
13291;SDS011;6714;53.056;8.690;2022-12-10T15:51:41;31.23;;;19.93;;
13291;SDS011;6714;53.056;8.690;2022-12-10T15:54:26;33.87;;;19.77;;
13291;SDS011;6714;53.056;8.690;2022-12-10T15:57:12;28.97;;;18.00;;
13291;SDS011;6714;53.056;8.690;2022-12-10T15:59:56;29.63;;;18.53;;
13291;SDS011;6714;53.056;8.690;2022-12-10T16:02:40;28.90;;;17.23;;
13291;SDS011;6714;53.056;8.690;2022-12-10T16:05:25;28.53;;;17.53;;
13291;SDS011;6714;53.056;8.690;2022-12-10T16:08:11;27.03;;;16.63;;
13291;SDS011;6714;53.056;8.690;2022-12-10T16:10:56;31.63;;;19.10;;
13291;SDS011;6714;53.056;8.690;2022-12-10T16:13:39;28.10;;;17.57;;
13291;SDS011;6714;53.056;8.690;2022-12-10T16:16:24;28.67;;;18.10;;
13291;SDS011;6714;53.056;8.690;2022-12-10T16:19:09;30.93;;;18.77;;
13291;SDS011;6714;53.056;8.690;2022-12-10T16:21:52;31.20;;;19.60;;
13291;SDS011;6714;53.056;8.690;2022-12-10T16:24:35;30.37;;;19.20;;
13291;SDS011;6714;53.056;8.690;2022-12-10T16:27:17;30.97;;;18.73;;